Time;durP1;ratioP1;P1;durP2;ratioP2;P2;SDS_P1;SDS_P2;PMS_P1;PMS_P2;Temp;Humidity;BMP_temperature;BMP_pressure;BME280_temperature;BME280_humidity;BME280_pressure;Samples;Min_cycle;Max_cycle;Signal;HPM_P1;HPM_P2
2023/10/11 00:05:44;;;;;;;21.90;14.65;;;11.40;99.90;;;;;;5058905;28;20049;-61
2023/10/11 00:08:13;;;;;;;21.15;13.70;;;11.40;99.90;;;;;;5055990;28;20068;-60
2023/10/11 00:10:54;;;;;;;21.15;14.95;;;11.50;99.90;;;;;;5054791;28;20080;-63
2023/10/11 00:13:24;;;;;;;21.95;14.18;;;11.50;99.90;;;;;;5056254;28;20044;-61
2023/10/11 00:15:53;;;;;;;18.90;14.10;;;11.50;99.90;;;;;;5051759;28;20055;-60
2023/10/11 00:18:28;;;;;;;23.25;16.10;;;11.50;99.90;;;;;;5055674;28;20101;-61
2023/10/11 00:20:59;;;;;;;23.33;15.75;;;11.60;99.90;;;;;;5058714;28;20064;-66
2023/10/11 00:23:27;;;;;;;22.42;14.68;;;11.60;99.90;;;;;;5056271;28;20037;-63
2023/10/11 00:26:00;;;;;;;24.13;15.60;;;11.60;99.90;;;;;;5058981;28;20048;-62
2023/10/11 00:28:31;;;;;;;27.00;17.95;;;11.60;99.90;;;;;;5060446;28;20055;-61
2023/10/11 00:31:01;;;;;;;30.20;17.48;;;11.70;99.90;;;;;;5039919;28;20494;-60
2023/10/11 00:33:32;;;;;;;24.60;16.98;;;11.70;99.90;;;;;;5056860;28;20056;-64
2023/10/11 00:36:05;;;;;;;27.75;17.15;;;11.60;99.90;;;;;;5060703;28;20489;-67
2023/10/11 00:38:42;;;;;;;30.02;17.23;;;11.70;99.90;;;;;;5055735;28;20071;-62
2023/10/11 00:41:17;;;;;;;29.08;18.88;;;11.70;99.90;;;;;;5054452;28;20029;-63
2023/10/11 00:43:52;;;;;;;25.25;16.45;;;11.70;99.90;;;;;;5057498;28;20056;-67
2023/10/11 00:46:27;;;;;;;33.75;16.48;;;11.70;99.90;;;;;;5054201;28;20049;-62
2023/10/11 00:51:32;;;;;;;33.13;17.92;;;11.70;99.90;;;;;;5057733;28;20052;-61
2023/10/11 00:54:01;;;;;;;28.02;17.15;;;11.70;99.90;;;;;;5041924;28;20360;-67
2023/10/11 00:56:31;;;;;;;35.60;20.23;;;11.70;99.90;;;;;;5056698;28;20132;-62
2023/10/11 00:59:08;;;;;;;33.97;17.23;;;11.80;99.90;;;;;;5055292;28;20849;-61
2023/10/11 01:01:37;;;;;;;30.42;17.42;;;11.70;99.90;;;;;;5057539;28;20072;-62
2023/10/11 01:04:06;;;;;;;30.35;16.85;;;11.70;99.90;;;;;;5059824;28;20584;-61
2023/10/11 01:06:34;;;;;;;33.63;17.42;;;11.80;99.90;;;;;;5059868;28;20036;-61
2023/10/11 01:09:37;;;;;;;33.25;18.13;;;11.80;99.90;;;;;;5057709;28;20496;-62
2023/10/11 01:11:55;;;;;;;35.00;17.90;;;11.80;99.90;;;;;;5053616;28;20047;-62
2023/10/11 01:14:25;;;;;;;38.15;17.65;;;11.80;99.90;;;;;;5055681;28;20144;-64
2023/10/11 01:16:53;;;;;;;29.00;16.92;;;11.80;99.90;;;;;;5057436;28;20032;-61
2023/10/11 01:19:23;;;;;;;32.83;18.57;;;11.80;99.90;;;;;;5041109;28;20045;-62
2023/10/11 01:21:54;;;;;;;35.83;17.73;;;11.80;99.90;;;;;;5052796;28;20475;-61
2023/10/11 01:24:21;;;;;;;26.42;16.20;;;11.80;99.90;;;;;;5050301;28;20040;-62
2023/10/11 01:26:48;;;;;;;31.77;16.30;;;11.80;99.90;;;;;;5069050;28;20044;-61
2023/10/11 01:29:16;;;;;;;30.80;16.77;;;11.80;99.90;;;;;;5055243;28;20037;-61
2023/10/11 01:31:44;;;;;;;31.92;16.08;;;11.80;99.90;;;;;;5052265;28;20040;-61
2023/10/11 01:34:14;;;;;;;32.63;15.93;;;11.80;99.90;;;;;;5060071;28;20579;-61
2023/10/11 01:36:44;;;;;;;33.90;16.15;;;11.80;99.90;;;;;;5056966;28;20049;-61
2023/10/11 01:39:12;;;;;;;30.10;15.50;;;11.80;99.90;;;;;;5053364;28;20095;-61
2023/10/11 01:41:42;;;;;;;27.75;15.65;;;11.80;99.90;;;;;;5036684;28;20132;-61
2023/10/11 01:44:10;;;;;;;31.15;15.50;;;11.80;99.90;;;;;;5039851;28;20048;-63
2023/10/11 01:46:40;;;;;;;28.30;15.63;;;11.90;99.90;;;;;;5073783;28;20102;-62
2023/10/11 01:49:09;;;;;;;36.35;17.27;;;11.90;99.90;;;;;;5057800;28;20052;-61
2023/10/11 01:51:40;;;;;;;27.00;15.20;;;11.90;99.90;;;;;;5054300;28;20382;-63
2023/10/11 01:54:08;;;;;;;28.35;15.32;;;11.90;99.90;;;;;;5054176;28;20048;-61
2023/10/11 01:56:37;;;;;;;36.75;16.02;;;11.90;99.90;;;;;;5058393;28;20074;-61
2023/10/11 01:59:06;;;;;;;31.70;16.92;;;11.90;99.90;;;;;;5056754;28;20064;-61
2023/10/11 02:01:39;;;;;;;24.45;13.65;;;11.90;99.90;;;;;;5071469;28;20044;-62
2023/10/11 02:04:17;;;;;;;31.02;15.35;;;12.00;99.90;;;;;;5047101;28;20048;-63
2023/10/11 02:06:47;;;;;;;24.50;13.98;;;11.90;99.90;;;;;;5040360;28;20057;-62
2023/10/11 02:09:20;;;;;;;21.80;14.73;;;12.00;99.90;;;;;;5038776;28;20147;-63
2023/10/11 02:11:52;;;;;;;32.63;15.40;;;12.00;99.90;;;;;;5037335;28;20129;-62
2023/10/11 02:14:21;;;;;;;28.70;15.43;;;12.00;99.90;;;;;;5056131;28;20048;-60
2023/10/11 02:16:48;;;;;;;24.77;14.18;;;12.10;99.90;;;;;;5038314;28;20037;-61
2023/10/11 02:19:15;;;;;;;23.77;13.75;;;12.00;99.90;;;;;;5062080;28;20060;-61
2023/10/11 02:21:45;;;;;;;30.70;16.50;;;12.00;99.90;;;;;;5057978;28;20124;-61
2023/10/11 02:24:16;;;;;;;21.58;12.13;;;12.00;99.90;;;;;;5042719;28;20057;-65
2023/10/11 02:26:49;;;;;;;24.83;14.57;;;12.00;99.90;;;;;;5063521;28;20466;-63
2023/10/11 02:29:25;;;;;;;23.92;14.20;;;12.10;99.90;;;;;;5040591;28;20482;-63
2023/10/11 02:31:53;;;;;;;28.10;14.65;;;12.10;99.90;;;;;;5055347;28;20044;-61
2023/10/11 02:34:21;;;;;;;29.70;14.73;;;12.10;99.90;;;;;;5060651;28;20044;-63
2023/10/11 02:37:10;;;;;;;26.15;13.80;;;12.10;99.90;;;;;;5061570;28;20048;-64
2023/10/11 02:39:44;;;;;;;28.50;15.13;;;12.10;99.90;;;;;;5057695;28;20072;-60
2023/10/11 02:42:11;;;;;;;30.00;14.95;;;12.10;99.90;;;;;;5058734;28;20450;-64
2023/10/11 02:44:39;;;;;;;28.48;15.60;;;12.10;99.90;;;;;;5054420;28;20115;-61
2023/10/11 02:47:08;;;;;;;26.27;14.55;;;12.10;99.90;;;;;;5059652;28;20436;-61
2023/10/11 02:49:35;;;;;;;31.55;16.45;;;12.10;99.90;;;;;;5056744;28;20040;-66
2023/10/11 02:52:08;;;;;;;31.58;15.23;;;12.10;99.90;;;;;;5055330;28;20044;-61
2023/10/11 02:54:39;;;;;;;28.58;15.90;;;12.10;99.90;;;;;;5055362;28;20053;-61
2023/10/11 02:57:18;;;;;;;29.45;15.85;;;12.10;99.90;;;;;;5056922;28;20160;-66
2023/10/11 02:59:50;;;;;;;33.13;17.60;;;12.20;99.90;;;;;;5074853;28;20119;-64
2023/10/11 03:02:21;;;;;;;34.78;15.57;;;12.20;99.90;;;;;;5039973;28;20033;-61
2023/10/11 03:04:50;;;;;;;27.00;16.63;;;12.20;99.90;;;;;;5041075;28;20051;-61
2023/10/11 03:07:23;;;;;;;30.55;16.02;;;12.20;99.90;;;;;;5060779;28;20040;-61
2023/10/11 03:09:54;;;;;;;32.40;16.60;;;12.20;99.90;;;;;;5057867;28;20049;-62
2023/10/11 03:12:31;;;;;;;29.52;15.80;;;12.30;99.90;;;;;;5039720;28;20051;-61
2023/10/11 03:15:09;;;;;;;26.15;16.25;;;12.30;99.90;;;;;;5063542;28;20060;-64
2023/10/11 03:17:40;;;;;;;28.60;16.67;;;12.40;99.90;;;;;;5056414;28;20064;-63
2023/10/11 03:20:35;;;;;;;25.58;14.30;;;12.40;99.90;;;;;;5059063;28;20052;-66
2023/10/11 03:23:03;;;;;;;29.08;17.15;;;12.40;99.90;;;;;;5060183;28;20574;-63
2023/10/11 03:25:32;;;;;;;20.30;12.98;;;12.40;99.90;;;;;;5055635;28;20044;-62
2023/10/11 03:27:59;;;;;;;20.98;13.38;;;12.50;99.90;;;;;;5054366;28;20093;-62
2023/10/11 03:30:26;;;;;;;22.08;15.45;;;12.50;99.90;;;;;;5060829;28;20037;-62
2023/10/11 03:32:53;;;;;;;17.45;12.15;;;12.50;99.90;;;;;;5060026;28;20033;-62
2023/10/11 03:35:25;;;;;;;20.48;11.98;;;12.50;99.90;;;;;;5059215;28;20110;-61
2023/10/11 03:37:58;;;;;;;16.98;10.45;;;12.50;99.90;;;;;;5055688;28;20045;-60
2023/10/11 03:40:54;;;;;;;19.38;11.98;;;12.50;99.90;;;;;;5060391;28;20191;-63
2023/10/11 03:43:26;;;;;;;18.23;12.25;;;12.60;99.90;;;;;;5057034;28;20028;-63
2023/10/11 03:45:56;;;;;;;16.98;12.23;;;12.70;99.90;;;;;;5052874;28;20040;-62
2023/10/11 03:48:28;;;;;;;17.95;12.25;;;12.70;99.90;;;;;;5059181;28;20062;-63
2023/10/11 03:50:56;;;;;;;17.55;11.77;;;12.70;99.90;;;;;;5055274;28;20501;-62
2023/10/11 03:53:23;;;;;;;13.77;9.52;;;12.80;99.90;;;;;;5059285;28;20046;-62
2023/10/11 03:55:50;;;;;;;16.98;10.40;;;12.80;99.90;;;;;;5056313;28;20053;-68
2023/10/11 03:58:29;;;;;;;19.17;11.57;;;12.80;99.90;;;;;;5058676;28;20064;-63
2023/10/11 04:01:04;;;;;;;19.88;11.30;;;12.80;99.90;;;;;;5055383;28;20029;-62
2023/10/11 04:03:35;;;;;;;16.95;8.52;;;12.80;99.90;;;;;;5056671;28;20052;-63
2023/10/11 04:06:05;;;;;;;13.23;8.02;;;12.90;99.90;;;;;;5053170;28;20040;-62
2023/10/11 04:08:39;;;;;;;18.83;9.38;;;12.90;99.90;;;;;;5055195;28;20079;-64
2023/10/11 04:11:14;;;;;;;19.00;11.38;;;12.90;99.90;;;;;;5055248;28;20116;-63
2023/10/11 04:13:45;;;;;;;19.23;10.93;;;12.90;99.90;;;;;;5056684;28;20036;-61
2023/10/11 04:16:14;;;;;;;22.73;11.48;;;13.00;99.90;;;;;;5052737;28;20751;-64
2023/10/11 04:18:43;;;;;;;23.33;12.10;;;13.00;99.90;;;;;;5055643;28;20135;-63
2023/10/11 04:23:39;;;;;;;21.15;13.02;;;13.00;99.90;;;;;;5058151;28;20037;-61
2023/10/11 04:26:23;;;;;;;28.50;14.63;;;13.00;99.90;;;;;;5057482;28;20435;-63
2023/10/11 04:28:52;;;;;;;28.25;15.85;;;13.00;99.90;;;;;;5050291;28;20072;-63
2023/10/11 04:31:30;;;;;;;23.08;15.10;;;13.10;99.90;;;;;;5054771;28;20110;-61
2023/10/11 04:33:59;;;;;;;30.98;16.55;;;13.10;99.90;;;;;;5055593;28;20098;-64
2023/10/11 04:36:28;;;;;;;21.85;15.45;;;13.10;99.90;;;;;;5057899;28;20037;-61
2023/10/11 04:39:12;;;;;;;27.17;16.10;;;13.10;99.90;;;;;;5055646;28;20033;-64
2023/10/11 04:41:49;;;;;;;28.50;14.90;;;13.10;99.90;;;;;;5059262;28;20542;-61
2023/10/11 04:44:17;;;;;;;26.02;18.48;;;13.10;99.90;;;;;;5053782;28;20040;-62
2023/10/11 04:46:55;;;;;;;35.25;21.70;;;13.10;99.90;;;;;;5057710;28;20132;-63
2023/10/11 04:49:24;;;;;;;42.83;23.27;;;13.10;99.90;;;;;;5059613;28;20093;-61
2023/10/11 04:51:56;;;;;;;47.53;28.37;;;13.10;99.90;;;;;;5057982;28;20045;-60
2023/10/11 04:54:36;;;;;;;55.85;28.20;;;13.10;99.90;;;;;;5056679;28;20040;-61
2023/10/11 04:57:07;;;;;;;51.63;28.27;;;13.10;99.90;;;;;;5056666;28;20089;-61
2023/10/11 05:02:50;;;;;;;62.22;32.90;;;13.10;99.90;;;;;;5054584;28;20063;-63
2023/10/11 05:04:53;;;;;;;68.22;33.15;;;13.10;99.90;;;;;;5042301;28;20106;-63
2023/10/11 05:07:21;;;;;;;69.47;34.22;;;13.10;99.90;;;;;;5060587;28;20037;-61
2023/10/11 05:10:18;;;;;;;70.10;38.13;;;13.10;99.90;;;;;;5053962;28;20036;-64
2023/10/11 05:12:46;;;;;;;66.75;32.67;;;13.10;99.90;;;;;;5058574;28;20037;-61
2023/10/11 05:15:15;;;;;;;61.20;35.58;;;13.10;99.90;;;;;;5057229;28;20033;-66
2023/10/11 05:17:50;;;;;;;66.57;36.20;;;13.00;99.90;;;;;;5057201;28;20111;-61
2023/10/11 05:31:00;;;;;;;73.85;34.55;;;12.90;99.90;;;;;;5054576;28;20059;-66
2023/10/11 05:33:41;;;;;;;69.20;36.28;;;12.90;99.90;;;;;;5055127;28;20025;-64
2023/10/11 05:36:14;;;;;;;72.32;34.28;;;12.90;99.90;;;;;;5055036;28;20044;-64
2023/10/11 05:52:29;;;;;;;71.78;37.35;;;12.90;99.90;;;;;;5058312;28;20103;-60
2023/10/11 05:54:57;;;;;;;68.07;38.08;;;12.90;99.90;;;;;;5060097;28;20048;-61
2023/10/11 05:57:25;;;;;;;81.55;38.92;;;12.90;99.90;;;;;;5061874;28;20052;-62
2023/10/11 05:59:52;;;;;;;85.28;40.25;;;12.90;99.90;;;;;;5059329;28;20699;-65
2023/10/11 06:02:19;;;;;;;67.75;39.58;;;12.90;99.90;;;;;;5055955;28;20067;-61
2023/10/11 06:04:47;;;;;;;88.05;42.95;;;12.90;99.90;;;;;;5056916;28;20052;-62
2023/10/11 06:07:16;;;;;;;77.07;39.47;;;12.90;99.90;;;;;;5058674;28;20486;-66
2023/10/11 06:09:43;;;;;;;84.35;44.50;;;12.90;99.90;;;;;;5057616;28;20127;-61
2023/10/11 06:12:23;;;;;;;72.72;38.92;;;12.90;99.90;;;;;;5062139;28;20037;-64
2023/10/11 06:14:52;;;;;;;82.32;40.60;;;12.90;99.90;;;;;;5055973;28;20048;-61
2023/10/11 06:22:51;;;;;;;75.80;39.97;;;12.90;99.90;;;;;;5061195;28;20455;-62
2023/10/11 06:25:23;;;;;;;74.47;42.05;;;12.90;99.90;;;;;;5046448;28;20093;-62
2023/10/11 06:30:24;;;;;;;71.13;38.85;;;12.90;99.90;;;;;;5059207;28;20052;-67
2023/10/11 06:32:52;;;;;;;87.13;40.47;;;12.90;99.90;;;;;;5058079;28;20060;-60
2023/10/11 06:35:25;;;;;;;84.78;41.72;;;12.90;99.90;;;;;;5057320;28;20080;-62
2023/10/11 06:37:52;;;;;;;78.43;41.50;;;13.00;99.90;;;;;;5060581;28;20111;-62
2023/10/11 06:40:38;;;;;;;74.50;41.45;;;12.90;99.90;;;;;;5056939;28;20078;-61
2023/10/11 06:43:07;;;;;;;69.57;39.88;;;13.00;99.90;;;;;;5061076;28;20044;-61
2023/10/11 06:45:35;;;;;;;66.70;38.40;;;13.00;99.90;;;;;;5056185;28;20084;-64
2023/10/11 06:48:08;;;;;;;75.53;38.92;;;13.00;99.90;;;;;;5059029;28;20036;-61
2023/10/11 06:50:37;;;;;;;73.75;38.60;;;12.90;99.90;;;;;;5059968;28;20037;-62
2023/10/11 06:53:09;;;;;;;67.43;36.58;;;13.00;99.90;;;;;;5063300;28;20036;-61
2023/10/11 06:55:39;;;;;;;73.75;36.03;;;13.00;99.90;;;;;;5062203;28;20045;-63
2023/10/11 06:58:15;;;;;;;57.05;35.58;;;13.00;99.90;;;;;;5062894;28;20106;-60
2023/10/11 07:00:48;;;;;;;53.30;34.95;;;13.00;99.90;;;;;;5057822;28;20072;-62
2023/10/11 07:06:00;;;;;;;57.25;32.92;;;13.00;99.90;;;;;;5055454;28;20063;-61
2023/10/11 07:08:35;;;;;;;56.03;33.78;;;13.10;99.90;;;;;;5060959;28;20037;-62
2023/10/11 07:13:49;;;;;;;62.45;34.95;;;13.10;99.90;;;;;;5060323;28;20072;-62
2023/10/11 07:16:22;;;;;;;54.20;34.92;;;13.20;99.90;;;;;;5062775;28;20481;-61
2023/10/11 07:18:54;;;;;;;52.65;30.80;;;13.20;99.90;;;;;;5056365;28;20098;-65
2023/10/11 07:21:26;;;;;;;55.60;30.40;;;13.20;99.90;;;;;;5062050;28;20047;-61
2023/10/11 07:26:23;;;;;;;52.47;30.48;;;13.30;99.90;;;;;;5053816;28;20090;-64
2023/10/11 07:28:52;;;;;;;48.50;29.45;;;13.30;99.90;;;;;;5055852;28;20096;-63
2023/10/11 07:31:33;;;;;;;47.95;29.90;;;13.30;99.90;;;;;;5056972;28;20793;-62
2023/10/11 07:34:06;;;;;;;53.95;29.52;;;13.30;99.90;;;;;;5056591;28;20033;-62
2023/10/11 07:36:36;;;;;;;56.55;32.75;;;13.20;99.90;;;;;;5060378;28;20045;-62
2023/10/11 07:39:25;;;;;;;52.70;29.92;;;13.20;99.90;;;;;;5057075;28;20041;-64
2023/10/11 07:42:19;;;;;;;46.30;30.45;;;13.30;99.90;;;;;;5058999;28;20393;-63
2023/10/11 07:44:44;;;;;;;66.82;33.83;;;13.30;99.90;;;;;;5061280;28;20043;-62
2023/10/11 07:47:18;;;;;;;50.67;31.00;;;13.30;99.90;;;;;;5055438;28;20044;-64
2023/10/11 07:49:45;;;;;;;53.35;32.13;;;13.20;99.90;;;;;;5054100;28;20098;-62
2023/10/11 07:52:19;;;;;;;55.75;33.75;;;13.20;99.90;;;;;;5055247;28;20296;-63
2023/10/11 07:54:46;;;;;;;46.67;29.83;;;13.20;99.90;;;;;;5055074;28;20128;-61
2023/10/11 07:57:14;;;;;;;54.78;34.22;;;13.20;99.90;;;;;;5060985;28;20045;-65
2023/10/11 07:59:42;;;;;;;58.08;31.77;;;13.30;99.90;;;;;;5059679;28;20068;-63
2023/10/11 08:02:29;;;;;;;61.97;32.45;;;13.30;99.90;;;;;;5053913;28;20064;-62
2023/10/11 08:04:57;;;;;;;58.67;34.10;;;13.30;99.90;;;;;;5056769;28;20102;-65
2023/10/11 08:07:24;;;;;;;54.25;29.98;;;13.30;99.90;;;;;;5058575;28;20037;-64
2023/10/11 08:09:55;;;;;;;59.92;33.30;;;13.40;99.90;;;;;;5056763;28;20052;-67
2023/10/11 08:12:25;;;;;;;53.40;31.48;;;13.40;99.90;;;;;;5056790;28;20044;-67
2023/10/11 08:14:56;;;;;;;58.55;33.60;;;13.40;99.90;;;;;;5061050;28;20060;-62
2023/10/11 08:17:29;;;;;;;55.13;32.42;;;13.50;99.90;;;;;;5054694;28;20108;-62
2023/10/11 08:19:57;;;;;;;55.80;33.70;;;13.50;99.90;;;;;;5061820;28;20049;-61
2023/10/11 08:22:24;;;;;;;50.08;32.65;;;13.50;99.90;;;;;;5055842;28;20040;-61
2023/10/11 08:25:01;;;;;;;55.42;32.25;;;13.60;99.90;;;;;;5057097;28;20040;-62
2023/10/11 08:27:28;;;;;;;53.63;31.95;;;13.70;99.90;;;;;;5057735;28;20060;-61
2023/10/11 08:30:08;;;;;;;47.20;33.35;;;13.70;99.90;;;;;;5062148;28;20049;-60
2023/10/11 08:32:38;;;;;;;48.70;32.13;;;13.70;99.90;;;;;;5052672;28;20115;-62
2023/10/11 08:35:14;;;;;;;46.53;31.77;;;13.80;99.90;;;;;;5054490;28;20052;-62
2023/10/11 08:37:41;;;;;;;48.58;31.58;;;13.80;99.90;;;;;;5053613;28;20343;-62
2023/10/11 08:40:23;;;;;;;45.90;30.15;;;13.80;99.90;;;;;;5055119;28;20463;-61
2023/10/11 08:42:51;;;;;;;49.08;31.15;;;13.90;99.90;;;;;;5056261;28;20040;-63
2023/10/11 08:45:28;;;;;;;54.50;31.42;;;13.90;99.90;;;;;;5064945;28;20102;-65
2023/10/11 08:47:57;;;;;;;51.92;30.85;;;13.90;99.90;;;;;;5057961;28;20373;-63
2023/10/11 08:50:32;;;;;;;54.00;32.42;;;13.90;99.90;;;;;;5060153;28;20497;-66
2023/10/11 08:53:01;;;;;;;49.25;31.77;;;13.90;99.90;;;;;;5061560;28;20033;-62
2023/10/11 08:55:28;;;;;;;45.88;29.10;;;13.90;99.90;;;;;;5054719;28;20057;-62
2023/10/11 08:57:55;;;;;;;55.58;30.70;;;13.90;99.90;;;;;;5055373;28;20109;-62
2023/10/11 09:00:31;;;;;;;52.50;31.13;;;14.00;99.90;;;;;;5046508;28;20072;-65
2023/10/11 09:03:18;;;;;;;45.30;28.77;;;14.00;99.90;;;;;;5058042;28;20047;-63
2023/10/11 09:05:47;;;;;;;46.70;31.08;;;14.00;99.90;;;;;;5057422;28;20110;-63
2023/10/11 09:08:31;;;;;;;45.50;28.48;;;14.00;99.90;;;;;;5057200;28;20090;-66
2023/10/11 09:11:13;;;;;;;54.22;32.53;;;14.00;99.90;;;;;;5057578;28;20032;-61
2023/10/11 09:13:41;;;;;;;46.95;28.58;;;14.10;99.90;;;;;;5056095;28;20087;-61
2023/10/11 09:16:12;;;;;;;43.20;28.90;;;14.10;99.90;;;;;;5059545;28;20060;-64
2023/10/11 09:18:46;;;;;;;46.65;29.98;;;14.20;99.90;;;;;;5051207;28;20045;-62
2023/10/11 09:21:18;;;;;;;44.20;28.45;;;14.40;99.90;;;;;;5059199;28;20594;-67
2023/10/11 09:23:49;;;;;;;39.08;25.73;;;14.40;99.90;;;;;;5066180;28;20063;-62
2023/10/11 09:26:34;;;;;;;45.53;27.58;;;14.50;99.90;;;;;;5058981;28;20440;-63
2023/10/11 09:29:16;;;;;;;43.60;27.48;;;14.60;99.90;;;;;;5058655;28;20044;-64
2023/10/11 09:31:57;;;;;;;37.75;23.50;;;14.60;99.90;;;;;;5062043;28;20052;-62
2023/10/11 09:34:29;;;;;;;38.58;25.27;;;14.60;99.90;;;;;;5058114;28;20112;-64
2023/10/11 09:36:58;;;;;;;46.72;27.17;;;14.60;99.90;;;;;;5062429;28;20041;-66
2023/10/11 09:39:29;;;;;;;37.15;26.70;;;14.60;99.90;;;;;;5054983;28;20076;-64
2023/10/11 09:42:02;;;;;;;38.13;23.63;;;14.60;99.90;;;;;;5065515;28;20037;-65
2023/10/11 09:44:39;;;;;;;38.50;25.88;;;14.60;99.90;;;;;;5061173;28;20120;-62
2023/10/11 09:47:16;;;;;;;47.85;27.55;;;14.60;99.90;;;;;;5058908;28;20044;-62
2023/10/11 09:49:46;;;;;;;43.72;30.20;;;14.60;99.90;;;;;;5063437;28;20094;-62
2023/10/11 09:52:17;;;;;;;42.08;25.25;;;14.70;99.90;;;;;;5061246;28;20076;-64
2023/10/11 09:54:45;;;;;;;40.25;25.23;;;14.70;99.90;;;;;;5059671;28;20127;-64
2023/10/11 09:57:20;;;;;;;34.45;25.42;;;14.70;99.90;;;;;;5057297;28;20038;-67
2023/10/11 10:00:12;;;;;;;43.10;27.33;;;14.70;99.90;;;;;;5061326;28;20489;-61
2023/10/11 10:02:44;;;;;;;41.35;25.92;;;14.60;99.90;;;;;;5060341;28;20044;-61
2023/10/11 10:05:12;;;;;;;39.75;26.20;;;14.70;99.90;;;;;;5058645;28;20037;-65
2023/10/11 10:07:45;;;;;;;41.35;27.90;;;14.80;99.90;;;;;;5046532;28;20052;-61
2023/10/11 10:10:15;;;;;;;34.47;25.77;;;14.80;99.90;;;;;;5062597;28;20060;-63
2023/10/11 10:12:56;;;;;;;37.90;27.00;;;14.90;99.90;;;;;;5062313;28;20036;-63
2023/10/11 10:15:32;;;;;;;40.88;26.58;;;14.90;99.90;;;;;;5060569;28;20060;-67
2023/10/11 10:18:05;;;;;;;33.70;23.98;;;15.00;99.90;;;;;;5056052;28;20037;-62
2023/10/11 10:20:43;;;;;;;37.05;25.25;;;15.00;99.90;;;;;;5055636;28;20048;-64
2023/10/11 10:23:21;;;;;;;33.55;23.02;;;15.10;99.90;;;;;;5061164;28;20444;-61
2023/10/11 10:26:11;;;;;;;35.95;25.77;;;15.10;99.90;;;;;;5059667;28;20481;-68
2023/10/11 10:28:47;;;;;;;34.30;24.07;;;15.10;99.90;;;;;;5061787;28;20048;-64
2023/10/11 10:31:18;;;;;;;31.13;26.15;;;15.20;99.90;;;;;;5059957;28;20076;-62
2023/10/11 10:33:51;;;;;;;33.55;24.85;;;15.10;99.90;;;;;;5058997;28;20064;-65
2023/10/11 10:36:21;;;;;;;36.45;24.80;;;15.10;99.90;;;;;;5057834;28;20106;-63
2023/10/11 10:38:58;;;;;;;;;;;15.10;99.90;;;;;;5061892;28;20036;-65
2023/10/11 10:41:36;;;;;;;32.78;25.08;;;15.10;99.90;;;;;;5057523;28;20376;-63
2023/10/11 10:44:05;;;;;;;29.35;21.73;;;15.10;99.90;;;;;;5058077;28;20454;-62
2023/10/11 10:46:50;;;;;;;32.05;22.83;;;15.10;99.90;;;;;;5062075;28;20049;-62
2023/10/11 10:49:23;;;;;;;30.38;22.27;;;15.10;99.90;;;;;;5059148;28;20047;-64
2023/10/11 10:51:53;;;;;;;39.72;22.17;;;15.10;99.90;;;;;;5058563;28;20410;-62
2023/10/11 10:54:25;;;;;;;29.98;22.15;;;15.10;99.90;;;;;;5057571;28;20423;-63
2023/10/11 10:56:56;;;;;;;41.67;22.55;;;15.10;99.90;;;;;;5056346;28;20101;-65
2023/10/11 10:59:25;;;;;;;33.05;20.15;;;15.10;99.90;;;;;;5055943;28;20514;-66
2023/10/11 11:01:53;;;;;;;30.70;20.08;;;15.10;99.90;;;;;;5054032;28;20048;-63
2023/10/11 11:04:24;;;;;;;28.92;21.85;;;15.00;99.90;;;;;;5057940;28;20032;-64
2023/10/11 11:06:55;;;;;;;34.42;23.13;;;15.00;99.90;;;;;;5061994;28;20070;-62
2023/10/11 11:09:25;;;;;;;34.60;20.92;;;15.00;99.90;;;;;;5055420;28;20048;-61
2023/10/11 11:11:57;;;;;;;32.53;21.60;;;14.90;99.90;;;;;;5057034;28;20269;-61
2023/10/11 11:14:25;;;;;;;31.88;19.77;;;14.90;99.90;;;;;;5058433;28;20447;-61
2023/10/11 11:16:57;;;;;;;38.72;20.92;;;14.80;99.90;;;;;;5057504;28;20051;-64
2023/10/11 11:19:25;;;;;;;26.60;18.48;;;14.90;99.90;;;;;;5058727;28;20045;-65
2023/10/11 11:22:12;;;;;;;25.80;19.88;;;14.80;99.90;;;;;;5054924;28;20099;-61
2023/10/11 11:24:43;;;;;;;39.45;19.08;;;14.80;99.90;;;;;;5058316;28;20033;-63
2023/10/11 11:27:27;;;;;;;27.38;19.67;;;14.80;99.90;;;;;;5059724;28;20087;-62
2023/10/11 11:30:02;;;;;;;30.70;19.15;;;14.70;99.90;;;;;;5056474;28;20119;-63
2023/10/11 11:32:41;;;;;;;30.67;19.33;;;14.80;99.90;;;;;;5057374;28;20045;-61
2023/10/11 11:38:02;;;;;;;28.98;17.80;;;14.70;99.90;;;;;;5057605;28;20741;-61
2023/10/11 11:40:46;;;;;;;30.42;20.48;;;14.60;99.90;;;;;;5056048;28;20059;-68
2023/10/11 11:43:19;;;;;;;25.60;18.30;;;14.70;99.90;;;;;;5056785;28;20041;-63
2023/10/11 11:45:48;;;;;;;26.83;18.15;;;14.70;99.90;;;;;;5056035;28;20060;-63
2023/10/11 11:48:23;;;;;;;23.80;18.63;;;14.70;99.90;;;;;;5057715;28;20113;-62
2023/10/11 11:50:50;;;;;;;25.73;17.40;;;14.70;99.90;;;;;;5056938;28;20041;-62
2023/10/11 11:53:18;;;;;;;28.48;17.85;;;14.70;99.90;;;;;;5057973;28;20102;-62
2023/10/11 11:55:46;;;;;;;22.67;16.17;;;14.70;99.90;;;;;;5057957;28;20044;-62
2023/10/11 11:58:16;;;;;;;30.58;17.27;;;14.80;99.90;;;;;;5055362;28;20124;-64
2023/10/11 12:00:56;;;;;;;24.63;16.35;;;14.80;99.90;;;;;;5058471;28;20060;-62
2023/10/11 12:03:23;;;;;;;26.98;17.15;;;14.80;99.90;;;;;;5061497;28;20041;-65
2023/10/11 12:05:52;;;;;;;29.40;15.35;;;14.80;99.90;;;;;;5061672;28;20032;-62
2023/10/11 12:08:19;;;;;;;18.75;14.18;;;14.80;99.90;;;;;;5057733;28;20040;-62
2023/10/11 12:10:49;;;;;;;23.48;16.55;;;14.80;99.90;;;;;;5055502;28;20041;-62
2023/10/11 12:13:23;;;;;;;;;;;14.80;99.90;;;;;;5057121;28;20048;-68
2023/10/11 12:15:55;;;;;;;27.40;15.52;;;14.90;99.90;;;;;;5055681;28;19935;-63
2023/10/11 12:18:24;;;;;;;19.00;15.38;;;14.80;99.90;;;;;;5057039;28;20045;-64
2023/10/11 12:20:51;;;;;;;24.80;14.00;;;14.90;99.90;;;;;;5052284;28;20043;-61
2023/10/11 12:23:18;;;;;;;22.70;14.45;;;14.80;99.90;;;;;;5054366;28;20037;-67
2023/10/11 12:25:47;;;;;;;27.25;15.27;;;14.80;99.90;;;;;;5058774;28;20127;-62
2023/10/11 12:28:14;;;;;;;19.40;13.57;;;14.80;99.90;;;;;;5056197;28;20390;-61
2023/10/11 12:30:45;;;;;;;23.67;18.05;;;14.70;99.90;;;;;;5056869;28;21667;-63
2023/10/11 12:33:12;;;;;;;22.77;14.60;;;14.60;99.90;;;;;;5053595;28;20041;-63
2023/10/11 12:35:40;;;;;;;25.60;14.25;;;14.60;99.90;;;;;;5054324;28;20037;-62
2023/10/11 12:38:12;;;;;;;25.55;15.48;;;14.60;99.90;;;;;;5057305;28;20063;-64
2023/10/11 12:40:40;;;;;;;29.35;15.85;;;14.60;99.90;;;;;;5056489;28;20041;-61
2023/10/11 12:43:07;;;;;;;27.95;16.83;;;14.60;99.90;;;;;;5058919;28;20113;-63
2023/10/11 12:45:36;;;;;;;24.45;14.68;;;14.60;99.90;;;;;;5052587;28;20152;-63
2023/10/11 12:48:06;;;;;;;23.42;16.25;;;14.60;99.90;;;;;;5054461;28;20063;-64
2023/10/11 12:50:37;;;;;;;27.90;14.43;;;14.60;99.90;;;;;;5055798;28;20049;-62
2023/10/11 12:53:11;;;;;;;22.83;15.85;;;14.70;99.90;;;;;;5055923;28;20517;-64
2023/10/11 12:55:42;;;;;;;27.00;16.52;;;14.60;99.90;;;;;;5057509;28;20045;-65
2023/10/11 12:58:13;;;;;;;22.40;14.38;;;14.60;99.90;;;;;;5060446;28;20110;-62
2023/10/11 13:00:48;;;;;;;22.42;14.63;;;14.60;99.90;;;;;;5060264;28;20470;-61
2023/10/11 13:03:20;;;;;;;24.95;14.60;;;14.60;99.90;;;;;;5054432;28;20033;-66
2023/10/11 13:05:47;;;;;;;19.92;12.20;;;14.60;99.90;;;;;;5060659;28;20045;-64
2023/10/11 13:08:15;;;;;;;29.40;15.68;;;14.70;99.90;;;;;;5052543;28;20048;-68
2023/10/11 13:10:48;;;;;;;23.52;15.45;;;14.60;99.90;;;;;;5056363;28;20040;-63
2023/10/11 13:13:16;;;;;;;23.23;14.95;;;14.60;99.90;;;;;;5057249;28;20068;-63
2023/10/11 13:15:59;;;;;;;28.00;16.40;;;14.60;99.90;;;;;;5049762;28;20106;-61
2023/10/11 13:18:28;;;;;;;20.23;13.80;;;14.60;99.90;;;;;;5058183;28;20134;-62
2023/10/11 13:20:55;;;;;;;25.45;14.23;;;14.60;99.90;;;;;;5059153;28;20045;-63
2023/10/11 13:23:28;;;;;;;23.23;16.40;;;14.60;99.90;;;;;;5055968;28;20047;-62
2023/10/11 13:26:00;;;;;;;22.23;14.25;;;14.50;99.90;;;;;;5052116;28;20052;-64
2023/10/11 13:28:28;;;;;;;24.80;15.15;;;14.50;99.90;;;;;;5056369;28;20063;-62
2023/10/11 13:30:55;;;;;;;24.63;14.88;;;14.60;99.90;;;;;;5053137;28;20069;-64
2023/10/11 13:33:22;;;;;;;20.40;13.98;;;14.60;99.90;;;;;;5056783;28;20037;-65
2023/10/11 13:35:50;;;;;;;25.13;15.77;;;14.60;99.90;;;;;;5055517;28;20068;-63
2023/10/11 13:38:17;;;;;;;25.75;11.43;;;14.60;99.90;;;;;;5054642;28;20636;-67
2023/10/11 13:40:50;;;;;;;23.95;13.15;;;14.60;99.90;;;;;;5055440;28;20445;-68
2023/10/11 13:43:19;;;;;;;17.60;12.05;;;14.70;99.90;;;;;;5056480;28;20048;-64
2023/10/11 13:45:56;;;;;;;18.70;13.60;;;14.70;99.90;;;;;;5061525;28;20623;-63
2023/10/11 13:48:40;;;;;;;24.52;12.40;;;14.80;99.90;;;;;;5057609;28;20036;-63